sensor_id;sensor_type;location;lat;lon;timestamp;P1;durP1;ratioP1;P2;durP2;ratioP2
17564;SDS011;62994;52.126;5.596;2022-12-18T00:01:14;43.63;;;17.87;;
17564;SDS011;62994;52.126;5.596;2022-12-18T00:03:42;48.17;;;18.67;;
17564;SDS011;62994;52.126;5.596;2022-12-18T00:06:14;44.93;;;18.10;;
17564;SDS011;62994;52.126;5.596;2022-12-18T00:08:48;45.10;;;17.73;;
17564;SDS011;62994;52.126;5.596;2022-12-18T00:11:23;53.80;;;18.60;;
17564;SDS011;62994;52.126;5.596;2022-12-18T00:13:54;42.07;;;17.67;;
17564;SDS011;62994;52.126;5.596;2022-12-18T00:16:23;49.40;;;17.87;;
17564;SDS011;62994;52.126;5.596;2022-12-18T00:18:56;47.70;;;17.63;;
17564;SDS011;62994;52.126;5.596;2022-12-18T00:21:31;49.73;;;17.97;;
17564;SDS011;62994;52.126;5.596;2022-12-18T00:23:59;50.83;;;19.07;;
17564;SDS011;62994;52.126;5.596;2022-12-18T00:26:27;50.57;;;19.83;;
17564;SDS011;62994;52.126;5.596;2022-12-18T00:28:57;57.40;;;20.33;;
17564;SDS011;62994;52.126;5.596;2022-12-18T00:31:30;49.00;;;18.37;;
17564;SDS011;62994;52.126;5.596;2022-12-18T00:33:57;60.63;;;20.73;;
17564;SDS011;62994;52.126;5.596;2022-12-18T00:36:25;59.33;;;20.37;;
17564;SDS011;62994;52.126;5.596;2022-12-18T00:38:55;50.87;;;18.83;;
17564;SDS011;62994;52.126;5.596;2022-12-18T00:41:24;56.07;;;19.07;;
17564;SDS011;62994;52.126;5.596;2022-12-18T00:44:17;51.20;;;18.73;;
17564;SDS011;62994;52.126;5.596;2022-12-18T00:46:45;52.43;;;18.27;;
17564;SDS011;62994;52.126;5.596;2022-12-18T00:49:13;44.83;;;17.10;;
17564;SDS011;62994;52.126;5.596;2022-12-18T00:51:41;60.67;;;19.00;;
17564;SDS011;62994;52.126;5.596;2022-12-18T00:54:10;44.30;;;18.73;;
17564;SDS011;62994;52.126;5.596;2022-12-18T00:56:38;50.50;;;18.87;;
17564;SDS011;62994;52.126;5.596;2022-12-18T00:59:05;46.13;;;17.70;;
17564;SDS011;62994;52.126;5.596;2022-12-18T01:01:33;51.87;;;18.90;;
17564;SDS011;62994;52.126;5.596;2022-12-18T01:04:00;38.63;;;16.83;;
17564;SDS011;62994;52.126;5.596;2022-12-18T01:06:28;51.97;;;19.67;;
17564;SDS011;62994;52.126;5.596;2022-12-18T01:08:56;54.60;;;17.83;;
17564;SDS011;62994;52.126;5.596;2022-12-18T01:11:25;45.83;;;18.13;;
17564;SDS011;62994;52.126;5.596;2022-12-18T01:13:53;48.73;;;19.13;;
17564;SDS011;62994;52.126;5.596;2022-12-18T01:16:21;41.60;;;16.57;;
17564;SDS011;62994;52.126;5.596;2022-12-18T01:18:53;40.80;;;16.63;;
17564;SDS011;62994;52.126;5.596;2022-12-18T01:21:21;46.90;;;17.03;;
17564;SDS011;62994;52.126;5.596;2022-12-18T01:23:50;44.20;;;17.30;;
17564;SDS011;62994;52.126;5.596;2022-12-18T01:26:18;47.00;;;18.17;;
17564;SDS011;62994;52.126;5.596;2022-12-18T01:28:47;46.43;;;16.43;;
17564;SDS011;62994;52.126;5.596;2022-12-18T01:31:16;39.13;;;15.93;;
17564;SDS011;62994;52.126;5.596;2022-12-18T01:33:45;43.93;;;16.63;;
17564;SDS011;62994;52.126;5.596;2022-12-18T01:36:16;42.63;;;16.67;;
17564;SDS011;62994;52.126;5.596;2022-12-18T01:38:50;36.30;;;15.33;;
17564;SDS011;62994;52.126;5.596;2022-12-18T01:41:21;37.87;;;14.73;;
17564;SDS011;62994;52.126;5.596;2022-12-18T01:43:52;41.97;;;16.43;;
17564;SDS011;62994;52.126;5.596;2022-12-18T01:46:24;44.57;;;16.87;;
17564;SDS011;62994;52.126;5.596;2022-12-18T01:48:53;39.73;;;15.17;;
17564;SDS011;62994;52.126;5.596;2022-12-18T01:51:26;37.50;;;16.00;;
17564;SDS011;62994;52.126;5.596;2022-12-18T01:53:54;40.80;;;16.50;;
17564;SDS011;62994;52.126;5.596;2022-12-18T01:56:25;37.37;;;15.63;;
17564;SDS011;62994;52.126;5.596;2022-12-18T01:58:55;45.90;;;16.53;;
17564;SDS011;62994;52.126;5.596;2022-12-18T02:01:26;45.40;;;16.37;;
17564;SDS011;62994;52.126;5.596;2022-12-18T02:03:55;39.80;;;15.53;;
17564;SDS011;62994;52.126;5.596;2022-12-18T02:06:44;44.40;;;16.57;;
17564;SDS011;62994;52.126;5.596;2022-12-18T02:09:13;31.63;;;13.87;;
17564;SDS011;62994;52.126;5.596;2022-12-18T02:11:47;38.33;;;15.00;;
17564;SDS011;62994;52.126;5.596;2022-12-18T02:14:28;34.30;;;15.83;;
17564;SDS011;62994;52.126;5.596;2022-12-18T02:17:07;30.90;;;15.40;;
17564;SDS011;62994;52.126;5.596;2022-12-18T02:19:45;34.40;;;16.40;;
17564;SDS011;62994;52.126;5.596;2022-12-18T02:22:29;34.07;;;15.00;;
17564;SDS011;62994;52.126;5.596;2022-12-18T02:25:13;29.07;;;15.30;;
17564;SDS011;62994;52.126;5.596;2022-12-18T02:27:52;33.37;;;14.93;;
17564;SDS011;62994;52.126;5.596;2022-12-18T02:30:29;40.03;;;14.93;;
17564;SDS011;62994;52.126;5.596;2022-12-18T02:32:59;36.37;;;14.37;;
17564;SDS011;62994;52.126;5.596;2022-12-18T02:35:30;35.27;;;14.80;;
17564;SDS011;62994;52.126;5.596;2022-12-18T02:38:00;37.77;;;17.70;;
17564;SDS011;62994;52.126;5.596;2022-12-18T02:40:29;39.53;;;15.70;;
17564;SDS011;62994;52.126;5.596;2022-12-18T02:43:06;33.80;;;13.73;;
17564;SDS011;62994;52.126;5.596;2022-12-18T02:45:33;40.07;;;15.30;;
17564;SDS011;62994;52.126;5.596;2022-12-18T02:48:01;35.67;;;14.13;;
17564;SDS011;62994;52.126;5.596;2022-12-18T02:50:30;32.57;;;14.27;;
17564;SDS011;62994;52.126;5.596;2022-12-18T02:53:04;38.30;;;16.10;;
17564;SDS011;62994;52.126;5.596;2022-12-18T02:55:39;39.80;;;16.50;;
17564;SDS011;62994;52.126;5.596;2022-12-18T02:58:20;32.13;;;13.87;;
17564;SDS011;62994;52.126;5.596;2022-12-18T03:01:06;41.83;;;14.37;;
17564;SDS011;62994;52.126;5.596;2022-12-18T03:03:46;37.80;;;15.27;;
17564;SDS011;62994;52.126;5.596;2022-12-18T03:06:20;29.97;;;13.20;;
17564;SDS011;62994;52.126;5.596;2022-12-18T03:08:56;43.07;;;16.83;;
17564;SDS011;62994;52.126;5.596;2022-12-18T03:11:36;32.90;;;13.87;;
17564;SDS011;62994;52.126;5.596;2022-12-18T03:14:25;36.30;;;15.87;;
17564;SDS011;62994;52.126;5.596;2022-12-18T03:16:57;34.97;;;14.50;;
17564;SDS011;62994;52.126;5.596;2022-12-18T03:19:28;26.73;;;12.33;;
17564;SDS011;62994;52.126;5.596;2022-12-18T03:21:58;23.20;;;12.33;;
17564;SDS011;62994;52.126;5.596;2022-12-18T03:24:29;32.00;;;13.27;;
17564;SDS011;62994;52.126;5.596;2022-12-18T03:27:00;26.67;;;12.73;;
17564;SDS011;62994;52.126;5.596;2022-12-18T03:29:33;23.50;;;12.33;;
17564;SDS011;62994;52.126;5.596;2022-12-18T03:32:04;30.67;;;12.57;;
17564;SDS011;62994;52.126;5.596;2022-12-18T03:34:37;26.73;;;12.10;;
17564;SDS011;62994;52.126;5.596;2022-12-18T03:37:07;33.50;;;13.13;;
17564;SDS011;62994;52.126;5.596;2022-12-18T03:39:34;23.83;;;12.27;;
17564;SDS011;62994;52.126;5.596;2022-12-18T03:42:04;25.77;;;12.73;;
17564;SDS011;62994;52.126;5.596;2022-12-18T03:44:35;24.33;;;12.33;;
17564;SDS011;62994;52.126;5.596;2022-12-18T03:47:11;22.53;;;11.80;;
17564;SDS011;62994;52.126;5.596;2022-12-18T03:49:43;29.97;;;11.93;;
17564;SDS011;62994;52.126;5.596;2022-12-18T03:52:20;26.20;;;11.30;;
17564;SDS011;62994;52.126;5.596;2022-12-18T03:54:55;28.20;;;12.97;;
17564;SDS011;62994;52.126;5.596;2022-12-18T03:57:25;23.40;;;11.57;;
17564;SDS011;62994;52.126;5.596;2022-12-18T03:59:57;25.17;;;12.30;;
17564;SDS011;62994;52.126;5.596;2022-12-18T04:02:27;19.53;;;10.47;;
17564;SDS011;62994;52.126;5.596;2022-12-18T04:04:57;30.20;;;13.77;;
17564;SDS011;62994;52.126;5.596;2022-12-18T04:07:30;28.90;;;12.57;;
17564;SDS011;62994;52.126;5.596;2022-12-18T04:10:01;30.80;;;12.77;;
17564;SDS011;62994;52.126;5.596;2022-12-18T04:12:29;27.47;;;13.07;;
17564;SDS011;62994;52.126;5.596;2022-12-18T04:15:03;28.33;;;13.00;;
17564;SDS011;62994;52.126;5.596;2022-12-18T04:17:31;26.27;;;12.67;;
17564;SDS011;62994;52.126;5.596;2022-12-18T04:19:58;27.77;;;12.53;;
17564;SDS011;62994;52.126;5.596;2022-12-18T04:22:26;28.53;;;12.83;;
17564;SDS011;62994;52.126;5.596;2022-12-18T04:24:53;24.17;;;11.13;;
17564;SDS011;62994;52.126;5.596;2022-12-18T04:27:20;26.20;;;11.67;;
17564;SDS011;62994;52.126;5.596;2022-12-18T04:29:47;27.43;;;10.90;;
17564;SDS011;62994;52.126;5.596;2022-12-18T04:32:16;22.30;;;11.17;;
17564;SDS011;62994;52.126;5.596;2022-12-18T04:34:43;25.27;;;11.60;;
17564;SDS011;62994;52.126;5.596;2022-12-18T04:37:10;21.83;;;10.83;;
17564;SDS011;62994;52.126;5.596;2022-12-18T04:39:37;20.70;;;10.87;;
17564;SDS011;62994;52.126;5.596;2022-12-18T04:42:06;24.67;;;14.67;;
17564;SDS011;62994;52.126;5.596;2022-12-18T04:44:33;23.37;;;10.97;;
17564;SDS011;62994;52.126;5.596;2022-12-18T04:47:00;28.83;;;12.27;;
17564;SDS011;62994;52.126;5.596;2022-12-18T04:49:34;30.13;;;15.67;;
17564;SDS011;62994;52.126;5.596;2022-12-18T04:52:01;25.30;;;14.80;;
17564;SDS011;62994;52.126;5.596;2022-12-18T04:54:29;22.40;;;14.17;;
17564;SDS011;62994;52.126;5.596;2022-12-18T04:57:02;27.67;;;14.60;;
17564;SDS011;62994;52.126;5.596;2022-12-18T04:59:29;25.20;;;14.43;;
17564;SDS011;62994;52.126;5.596;2022-12-18T05:02:01;24.53;;;14.77;;
17564;SDS011;62994;52.126;5.596;2022-12-18T05:04:28;25.47;;;13.73;;
17564;SDS011;62994;52.126;5.596;2022-12-18T05:07:00;23.27;;;14.13;;
17564;SDS011;62994;52.126;5.596;2022-12-18T05:09:28;21.13;;;12.73;;
17564;SDS011;62994;52.126;5.596;2022-12-18T05:11:55;18.33;;;10.27;;
17564;SDS011;62994;52.126;5.596;2022-12-18T05:14:22;16.27;;;9.27;;
17564;SDS011;62994;52.126;5.596;2022-12-18T05:16:50;16.80;;;9.60;;
17564;SDS011;62994;52.126;5.596;2022-12-18T05:19:17;18.87;;;10.33;;
17564;SDS011;62994;52.126;5.596;2022-12-18T05:21:45;18.50;;;9.10;;
17564;SDS011;62994;52.126;5.596;2022-12-18T05:24:13;16.73;;;8.67;;
17564;SDS011;62994;52.126;5.596;2022-12-18T05:26:41;16.97;;;9.27;;
17564;SDS011;62994;52.126;5.596;2022-12-18T05:29:08;15.77;;;9.57;;
17564;SDS011;62994;52.126;5.596;2022-12-18T05:31:40;13.50;;;8.13;;
17564;SDS011;62994;52.126;5.596;2022-12-18T05:34:07;13.47;;;8.17;;
17564;SDS011;62994;52.126;5.596;2022-12-18T05:36:35;12.43;;;8.00;;
17564;SDS011;62994;52.126;5.596;2022-12-18T05:39:02;16.80;;;9.70;;
17564;SDS011;62994;52.126;5.596;2022-12-18T05:41:31;13.33;;;8.60;;
17564;SDS011;62994;52.126;5.596;2022-12-18T05:44:00;17.20;;;8.93;;
17564;SDS011;62994;52.126;5.596;2022-12-18T05:46:27;20.27;;;10.13;;
17564;SDS011;62994;52.126;5.596;2022-12-18T05:48:54;14.93;;;8.83;;
17564;SDS011;62994;52.126;5.596;2022-12-18T05:51:25;14.00;;;8.83;;
17564;SDS011;62994;52.126;5.596;2022-12-18T05:53:52;21.27;;;11.93;;
17564;SDS011;62994;52.126;5.596;2022-12-18T05:56:19;21.50;;;12.40;;
17564;SDS011;62994;52.126;5.596;2022-12-18T05:58:50;22.70;;;12.13;;
17564;SDS011;62994;52.126;5.596;2022-12-18T06:01:19;20.70;;;11.33;;
17564;SDS011;62994;52.126;5.596;2022-12-18T06:03:48;21.27;;;11.50;;
17564;SDS011;62994;52.126;5.596;2022-12-18T06:06:15;19.33;;;11.63;;
17564;SDS011;62994;52.126;5.596;2022-12-18T06:08:44;16.80;;;11.03;;
17564;SDS011;62994;52.126;5.596;2022-12-18T06:11:11;19.30;;;12.10;;
17564;SDS011;62994;52.126;5.596;2022-12-18T06:13:41;16.37;;;10.83;;
17564;SDS011;62994;52.126;5.596;2022-12-18T06:16:10;22.80;;;12.37;;
17564;SDS011;62994;52.126;5.596;2022-12-18T06:18:37;17.00;;;10.50;;
17564;SDS011;62994;52.126;5.596;2022-12-18T06:21:05;20.57;;;11.20;;
17564;SDS011;62994;52.126;5.596;2022-12-18T06:23:32;15.50;;;8.47;;
17564;SDS011;62994;52.126;5.596;2022-12-18T06:26:02;11.70;;;8.30;;
17564;SDS011;62994;52.126;5.596;2022-12-18T06:28:30;13.50;;;8.57;;
17564;SDS011;62994;52.126;5.596;2022-12-18T06:30:57;14.23;;;8.20;;
17564;SDS011;62994;52.126;5.596;2022-12-18T06:33:27;13.87;;;8.00;;
17564;SDS011;62994;52.126;5.596;2022-12-18T06:35:58;11.97;;;8.20;;
17564;SDS011;62994;52.126;5.596;2022-12-18T06:38:27;13.00;;;8.30;;
17564;SDS011;62994;52.126;5.596;2022-12-18T06:40:54;10.63;;;7.80;;
17564;SDS011;62994;52.126;5.596;2022-12-18T06:43:24;12.30;;;8.67;;
17564;SDS011;62994;52.126;5.596;2022-12-18T06:45:57;12.13;;;8.77;;
17564;SDS011;62994;52.126;5.596;2022-12-18T06:48:26;9.93;;;7.40;;
17564;SDS011;62994;52.126;5.596;2022-12-18T06:50:56;13.17;;;7.93;;
17564;SDS011;62994;52.126;5.596;2022-12-18T06:53:24;17.90;;;7.60;;
17564;SDS011;62994;52.126;5.596;2022-12-18T06:55:51;10.53;;;7.23;;
17564;SDS011;62994;52.126;5.596;2022-12-18T06:58:19;16.13;;;7.63;;
17564;SDS011;62994;52.126;5.596;2022-12-18T07:00:46;14.43;;;8.57;;
17564;SDS011;62994;52.126;5.596;2022-12-18T07:03:13;13.93;;;8.30;;
17564;SDS011;62994;52.126;5.596;2022-12-18T07:05:44;12.10;;;7.50;;
17564;SDS011;62994;52.126;5.596;2022-12-18T07:08:11;14.40;;;8.17;;
17564;SDS011;62994;52.126;5.596;2022-12-18T07:10:40;12.90;;;8.43;;
17564;SDS011;62994;52.126;5.596;2022-12-18T07:13:10;16.47;;;9.07;;
17564;SDS011;62994;52.126;5.596;2022-12-18T07:15:37;15.80;;;8.73;;
17564;SDS011;62994;52.126;5.596;2022-12-18T07:18:04;14.13;;;8.43;;
17564;SDS011;62994;52.126;5.596;2022-12-18T07:20:31;11.37;;;8.13;;
17564;SDS011;62994;52.126;5.596;2022-12-18T07:23:00;18.07;;;8.70;;
17564;SDS011;62994;52.126;5.596;2022-12-18T07:25:28;17.67;;;11.10;;
17564;SDS011;62994;52.126;5.596;2022-12-18T07:27:55;16.20;;;9.07;;
17564;SDS011;62994;52.126;5.596;2022-12-18T07:30:22;14.43;;;8.80;;
17564;SDS011;62994;52.126;5.596;2022-12-18T07:32:49;16.47;;;9.57;;
17564;SDS011;62994;52.126;5.596;2022-12-18T07:35:16;21.73;;;9.47;;
17564;SDS011;62994;52.126;5.596;2022-12-18T07:37:44;13.60;;;8.43;;
17564;SDS011;62994;52.126;5.596;2022-12-18T07:40:12;15.30;;;8.90;;
17564;SDS011;62994;52.126;5.596;2022-12-18T07:42:39;16.30;;;8.87;;
17564;SDS011;62994;52.126;5.596;2022-12-18T07:45:07;15.27;;;9.57;;
17564;SDS011;62994;52.126;5.596;2022-12-18T07:47:35;14.33;;;8.87;;
17564;SDS011;62994;52.126;5.596;2022-12-18T07:50:03;15.70;;;11.23;;
17564;SDS011;62994;52.126;5.596;2022-12-18T07:52:31;16.97;;;9.60;;
17564;SDS011;62994;52.126;5.596;2022-12-18T07:54:58;13.97;;;8.97;;
17564;SDS011;62994;52.126;5.596;2022-12-18T07:57:27;13.77;;;9.07;;
17564;SDS011;62994;52.126;5.596;2022-12-18T08:00:03;15.63;;;10.93;;
17564;SDS011;62994;52.126;5.596;2022-12-18T08:02:34;18.10;;;11.43;;
17564;SDS011;62994;52.126;5.596;2022-12-18T08:05:01;20.57;;;8.93;;
17564;SDS011;62994;52.126;5.596;2022-12-18T08:07:33;15.47;;;9.60;;
17564;SDS011;62994;52.126;5.596;2022-12-18T08:10:00;15.63;;;9.20;;
17564;SDS011;62994;52.126;5.596;2022-12-18T08:12:29;15.23;;;8.57;;
17564;SDS011;62994;52.126;5.596;2022-12-18T08:14:56;13.80;;;8.90;;
17564;SDS011;62994;52.126;5.596;2022-12-18T08:17:28;13.63;;;8.63;;
17564;SDS011;62994;52.126;5.596;2022-12-18T08:19:56;11.97;;;8.83;;
17564;SDS011;62994;52.126;5.596;2022-12-18T08:22:23;15.23;;;9.73;;
17564;SDS011;62994;52.126;5.596;2022-12-18T08:24:50;14.30;;;8.03;;
17564;SDS011;62994;52.126;5.596;2022-12-18T08:27:17;9.90;;;7.87;;
17564;SDS011;62994;52.126;5.596;2022-12-18T08:29:46;16.30;;;9.50;;
17564;SDS011;62994;52.126;5.596;2022-12-18T08:32:13;12.53;;;8.00;;
17564;SDS011;62994;52.126;5.596;2022-12-18T08:34:45;11.57;;;7.23;;
17564;SDS011;62994;52.126;5.596;2022-12-18T08:37:14;11.40;;;7.80;;
17564;SDS011;62994;52.126;5.596;2022-12-18T08:39:43;13.43;;;7.77;;
17564;SDS011;62994;52.126;5.596;2022-12-18T08:42:14;12.90;;;8.23;;
17564;SDS011;62994;52.126;5.596;2022-12-18T08:45:00;9.63;;;7.53;;
17564;SDS011;62994;52.126;5.596;2022-12-18T08:47:33;10.93;;;7.80;;
17564;SDS011;62994;52.126;5.596;2022-12-18T08:50:06;13.17;;;7.47;;
17564;SDS011;62994;52.126;5.596;2022-12-18T08:52:35;13.43;;;8.83;;
17564;SDS011;62994;52.126;5.596;2022-12-18T08:55:03;11.43;;;7.70;;
17564;SDS011;62994;52.126;5.596;2022-12-18T08:57:30;9.30;;;6.93;;
17564;SDS011;62994;52.126;5.596;2022-12-18T08:59:57;10.60;;;6.97;;
17564;SDS011;62994;52.126;5.596;2022-12-18T09:02:27;9.90;;;7.63;;
17564;SDS011;62994;52.126;5.596;2022-12-18T09:04:55;9.30;;;7.60;;
17564;SDS011;62994;52.126;5.596;2022-12-18T09:07:23;7.83;;;6.93;;
17564;SDS011;62994;52.126;5.596;2022-12-18T09:09:50;12.13;;;7.70;;
17564;SDS011;62994;52.126;5.596;2022-12-18T09:12:17;7.60;;;6.83;;
17564;SDS011;62994;52.126;5.596;2022-12-18T09:14:44;9.20;;;6.47;;
17564;SDS011;62994;52.126;5.596;2022-12-18T09:17:27;11.23;;;7.87;;
17564;SDS011;62994;52.126;5.596;2022-12-18T09:19:54;10.23;;;7.20;;
17564;SDS011;62994;52.126;5.596;2022-12-18T09:22:21;15.57;;;7.17;;
17564;SDS011;62994;52.126;5.596;2022-12-18T09:24:48;9.27;;;7.00;;
17564;SDS011;62994;52.126;5.596;2022-12-18T09:27:20;8.60;;;6.70;;
17564;SDS011;62994;52.126;5.596;2022-12-18T09:29:47;10.83;;;7.17;;
17564;SDS011;62994;52.126;5.596;2022-12-18T09:32:15;11.33;;;7.00;;
17564;SDS011;62994;52.126;5.596;2022-12-18T09:34:44;9.57;;;6.67;;
17564;SDS011;62994;52.126;5.596;2022-12-18T09:37:11;11.40;;;6.87;;
17564;SDS011;62994;52.126;5.596;2022-12-18T09:39:44;12.13;;;7.07;;
17564;SDS011;62994;52.126;5.596;2022-12-18T09:42:17;11.33;;;7.03;;
17564;SDS011;62994;52.126;5.596;2022-12-18T09:44:48;10.70;;;7.23;;
17564;SDS011;62994;52.126;5.596;2022-12-18T09:47:19;8.93;;;6.13;;
17564;SDS011;62994;52.126;5.596;2022-12-18T09:49:50;11.60;;;6.97;;
17564;SDS011;62994;52.126;5.596;2022-12-18T09:52:21;8.17;;;6.73;;
17564;SDS011;62994;52.126;5.596;2022-12-18T09:54:57;8.27;;;6.80;;
17564;SDS011;62994;52.126;5.596;2022-12-18T09:57:31;9.53;;;6.73;;
17564;SDS011;62994;52.126;5.596;2022-12-18T10:00:04;9.83;;;6.53;;
17564;SDS011;62994;52.126;5.596;2022-12-18T10:02:45;10.53;;;6.87;;
17564;SDS011;62994;52.126;5.596;2022-12-18T10:05:19;12.60;;;7.93;;
17564;SDS011;62994;52.126;5.596;2022-12-18T10:07:57;10.20;;;6.63;;
17564;SDS011;62994;52.126;5.596;2022-12-18T10:10:32;7.93;;;6.27;;
17564;SDS011;62994;52.126;5.596;2022-12-18T10:13:09;7.47;;;6.70;;
17564;SDS011;62994;52.126;5.596;2022-12-18T10:15:48;7.33;;;6.63;;
17564;SDS011;62994;52.126;5.596;2022-12-18T10:18:24;8.93;;;6.53;;
17564;SDS011;62994;52.126;5.596;2022-12-18T10:21:02;9.87;;;6.30;;
17564;SDS011;62994;52.126;5.596;2022-12-18T10:23:37;6.33;;;5.80;;
17564;SDS011;62994;52.126;5.596;2022-12-18T10:26:09;6.80;;;5.80;;
17564;SDS011;62994;52.126;5.596;2022-12-18T10:28:46;8.03;;;6.07;;
17564;SDS011;62994;52.126;5.596;2022-12-18T10:31:14;7.13;;;6.43;;
17564;SDS011;62994;52.126;5.596;2022-12-18T10:33:44;9.73;;;6.00;;
17564;SDS011;62994;52.126;5.596;2022-12-18T10:36:14;10.83;;;6.70;;
17564;SDS011;62994;52.126;5.596;2022-12-18T10:38:46;7.87;;;6.40;;
17564;SDS011;62994;52.126;5.596;2022-12-18T10:41:25;9.03;;;6.17;;
17564;SDS011;62994;52.126;5.596;2022-12-18T10:47:04;8.00;;;6.63;;
17564;SDS011;62994;52.126;5.596;2022-12-18T10:49:41;8.27;;;7.13;;
17564;SDS011;62994;52.126;5.596;2022-12-18T10:52:17;10.07;;;6.30;;
17564;SDS011;62994;52.126;5.596;2022-12-18T10:54:50;8.33;;;5.80;;
17564;SDS011;62994;52.126;5.596;2022-12-18T10:57:32;8.27;;;6.10;;
17564;SDS011;62994;52.126;5.596;2022-12-18T11:00:20;9.17;;;7.00;;
17564;SDS011;62994;52.126;5.596;2022-12-18T11:02:55;6.67;;;5.97;;
17564;SDS011;62994;52.126;5.596;2022-12-18T11:05:26;9.13;;;8.07;;
17564;SDS011;62994;52.126;5.596;2022-12-18T11:07:55;9.30;;;7.30;;
17564;SDS011;62994;52.126;5.596;2022-12-18T11:10:26;11.97;;;7.30;;
17564;SDS011;62994;52.126;5.596;2022-12-18T11:13:14;7.67;;;6.43;;
17564;SDS011;62994;52.126;5.596;2022-12-18T11:15:47;8.07;;;6.57;;
17564;SDS011;62994;52.126;5.596;2022-12-18T11:18:16;10.80;;;6.90;;
17564;SDS011;62994;52.126;5.596;2022-12-18T11:20:54;8.23;;;6.40;;
17564;SDS011;62994;52.126;5.596;2022-12-18T11:23:22;9.77;;;6.60;;
17564;SDS011;62994;52.126;5.596;2022-12-18T11:25:51;8.67;;;5.90;;
17564;SDS011;62994;52.126;5.596;2022-12-18T11:28:33;9.20;;;6.47;;
17564;SDS011;62994;52.126;5.596;2022-12-18T11:33:59;8.33;;;6.43;;
17564;SDS011;62994;52.126;5.596;2022-12-18T11:36:33;8.87;;;6.13;;
17564;SDS011;62994;52.126;5.596;2022-12-18T11:39:11;8.03;;;6.03;;
17564;SDS011;62994;52.126;5.596;2022-12-18T11:41:47;8.60;;;6.23;;
17564;SDS011;62994;52.126;5.596;2022-12-18T11:44:38;7.47;;;6.30;;
17564;SDS011;62994;52.126;5.596;2022-12-18T11:47:15;9.47;;;6.57;;
17564;SDS011;62994;52.126;5.596;2022-12-18T11:49:53;8.87;;;6.00;;
17564;SDS011;62994;52.126;5.596;2022-12-18T11:52:37;8.10;;;6.40;;
17564;SDS011;62994;52.126;5.596;2022-12-18T11:55:19;10.30;;;6.87;;
17564;SDS011;62994;52.126;5.596;2022-12-18T11:57:57;7.97;;;6.40;;
17564;SDS011;62994;52.126;5.596;2022-12-18T12:00:34;7.20;;;5.97;;
17564;SDS011;62994;52.126;5.596;2022-12-18T12:03:22;8.17;;;6.43;;
17564;SDS011;62994;52.126;5.596;2022-12-18T12:06:06;8.60;;;6.63;;
17564;SDS011;62994;52.126;5.596;2022-12-18T12:08:46;13.13;;;6.80;;
17564;SDS011;62994;52.126;5.596;2022-12-18T12:11:25;7.40;;;6.47;;
17564;SDS011;62994;52.126;5.596;2022-12-18T12:14:02;6.97;;;6.27;;
17564;SDS011;62994;52.126;5.596;2022-12-18T12:16:44;11.13;;;6.83;;
17564;SDS011;62994;52.126;5.596;2022-12-18T12:19:22;11.23;;;7.83;;
17564;SDS011;62994;52.126;5.596;2022-12-18T12:22:03;10.40;;;7.07;;
17564;SDS011;62994;52.126;5.596;2022-12-18T12:24:39;8.40;;;6.67;;
17564;SDS011;62994;52.126;5.596;2022-12-18T12:27:18;10.20;;;7.37;;
17564;SDS011;62994;52.126;5.596;2022-12-18T12:29:59;10.10;;;9.00;;
17564;SDS011;62994;52.126;5.596;2022-12-18T12:32:36;8.93;;;8.00;;
17564;SDS011;62994;52.126;5.596;2022-12-18T12:35:14;9.53;;;8.27;;
17564;SDS011;62994;52.126;5.596;2022-12-18T12:37:58;13.00;;;8.10;;
17564;SDS011;62994;52.126;5.596;2022-12-18T12:40:39;10.90;;;7.80;;
17564;SDS011;62994;52.126;5.596;2022-12-18T12:43:20;9.27;;;7.50;;
17564;SDS011;62994;52.126;5.596;2022-12-18T12:45:54;9.70;;;7.00;;
17564;SDS011;62994;52.126;5.596;2022-12-18T12:48:39;10.27;;;7.40;;
17564;SDS011;62994;52.126;5.596;2022-12-18T12:51:12;13.57;;;8.27;;
17564;SDS011;62994;52.126;5.596;2022-12-18T12:53:44;8.63;;;7.30;;
17564;SDS011;62994;52.126;5.596;2022-12-18T12:56:16;11.53;;;8.13;;
17564;SDS011;62994;52.126;5.596;2022-12-18T12:58:59;9.40;;;7.60;;
17564;SDS011;62994;52.126;5.596;2022-12-18T13:01:36;8.60;;;7.33;;
17564;SDS011;62994;52.126;5.596;2022-12-18T13:04:11;10.10;;;8.43;;
17564;SDS011;62994;52.126;5.596;2022-12-18T13:06:49;9.97;;;7.73;;
17564;SDS011;62994;52.126;5.596;2022-12-18T13:09:24;8.90;;;8.00;;
17564;SDS011;62994;52.126;5.596;2022-12-18T13:12:03;11.33;;;7.70;;
17564;SDS011;62994;52.126;5.596;2022-12-18T13:14:54;11.07;;;7.53;;
17564;SDS011;62994;52.126;5.596;2022-12-18T13:17:44;7.60;;;6.67;;
17564;SDS011;62994;52.126;5.596;2022-12-18T13:20:15;11.47;;;7.53;;
17564;SDS011;62994;52.126;5.596;2022-12-18T13:22:44;9.70;;;7.20;;
17564;SDS011;62994;52.126;5.596;2022-12-18T13:28:13;12.10;;;7.97;;
17564;SDS011;62994;52.126;5.596;2022-12-18T13:30:44;13.87;;;8.43;;
17564;SDS011;62994;52.126;5.596;2022-12-18T13:36:14;12.77;;;8.30;;
17564;SDS011;62994;52.126;5.596;2022-12-18T13:45:37;9.90;;;6.90;;
17564;SDS011;62994;52.126;5.596;2022-12-18T13:48:20;9.10;;;7.60;;
17564;SDS011;62994;52.126;5.596;2022-12-18T13:50:52;11.60;;;7.83;;
17564;SDS011;62994;52.126;5.596;2022-12-18T13:53:33;11.67;;;8.53;;
17564;SDS011;62994;52.126;5.596;2022-12-18T13:56:02;11.90;;;7.53;;
17564;SDS011;62994;52.126;5.596;2022-12-18T13:58:30;11.50;;;7.87;;
17564;SDS011;62994;52.126;5.596;2022-12-18T14:00:59;12.30;;;7.53;;
17564;SDS011;62994;52.126;5.596;2022-12-18T14:03:34;10.90;;;8.83;;
17564;SDS011;62994;52.126;5.596;2022-12-18T14:06:03;10.53;;;8.37;;
17564;SDS011;62994;52.126;5.596;2022-12-18T14:08:38;10.50;;;8.77;;
17564;SDS011;62994;52.126;5.596;2022-12-18T14:11:10;10.20;;;8.17;;
17564;SDS011;62994;52.126;5.596;2022-12-18T14:13:48;10.07;;;8.57;;
17564;SDS011;62994;52.126;5.596;2022-12-18T14:16:25;9.57;;;8.10;;
17564;SDS011;62994;52.126;5.596;2022-12-18T14:18:55;9.93;;;8.77;;
17564;SDS011;62994;52.126;5.596;2022-12-18T14:21:25;8.50;;;7.07;;
17564;SDS011;62994;52.126;5.596;2022-12-18T14:24:06;9.00;;;7.83;;
17564;SDS011;62994;52.126;5.596;2022-12-18T14:26:40;12.00;;;8.50;;
17564;SDS011;62994;52.126;5.596;2022-12-18T14:29:18;13.20;;;8.57;;
17564;SDS011;62994;52.126;5.596;2022-12-18T14:32:07;10.00;;;8.07;;
17564;SDS011;62994;52.126;5.596;2022-12-18T14:34:39;10.33;;;8.00;;
17564;SDS011;62994;52.126;5.596;2022-12-18T14:37:08;16.20;;;8.83;;
17564;SDS011;62994;52.126;5.596;2022-12-18T14:39:37;12.87;;;8.47;;
17564;SDS011;62994;52.126;5.596;2022-12-18T14:42:13;10.20;;;8.70;;
17564;SDS011;62994;52.126;5.596;2022-12-18T14:44:40;12.10;;;8.50;;
17564;SDS011;62994;52.126;5.596;2022-12-18T14:47:15;10.60;;;9.10;;
17564;SDS011;62994;52.126;5.596;2022-12-18T14:49:43;9.43;;;8.40;;
17564;SDS011;62994;52.126;5.596;2022-12-18T14:52:18;9.40;;;8.10;;
17564;SDS011;62994;52.126;5.596;2022-12-18T14:54:57;13.43;;;8.70;;
17564;SDS011;62994;52.126;5.596;2022-12-18T14:57:25;10.10;;;8.07;;
17564;SDS011;62994;52.126;5.596;2022-12-18T15:00:03;15.53;;;9.40;;
17564;SDS011;62994;52.126;5.596;2022-12-18T15:02:34;12.53;;;8.17;;
17564;SDS011;62994;52.126;5.596;2022-12-18T15:05:03;10.77;;;8.27;;
17564;SDS011;62994;52.126;5.596;2022-12-18T15:07:39;8.30;;;7.37;;
17564;SDS011;62994;52.126;5.596;2022-12-18T15:10:10;12.07;;;8.97;;
17564;SDS011;62994;52.126;5.596;2022-12-18T15:12:46;10.20;;;8.67;;
17564;SDS011;62994;52.126;5.596;2022-12-18T15:18:19;10.60;;;8.60;;
17564;SDS011;62994;52.126;5.596;2022-12-18T15:20:54;11.93;;;8.87;;
17564;SDS011;62994;52.126;5.596;2022-12-18T15:23:27;10.00;;;7.80;;